To NAV CANADA Home Page Login to a new session Search on AWWS site Feedback and Comments Disclaimer Vers la page française équivalente Tips FAQ What's new on the site To the Forecasts and Observations / NOTAM section To "File a Flight Plan" website Publications and other links Update of the User's profile FIC Telephone Numbers My Weather Data Folder Route Weather Data Regional Weather Data Local Weather Data To the Forecasts and Observations / NOTAM section
Request Generated 08/22/2017 at 03:25:11 UTC . Weather information available at that time is displayed.

METAR/TAF

THOMPSON/MB    

METAR CYTH 220300Z 01004KT 15SM -SHRA SCT010 BKN019 OVC040 12/11
A2990 RMK ST4SC3SC1 SLP133=
METAR CYTH 220200Z 03008KT 15SM -SHRA BKN010 BKN018 OVC045 12/11
A2988 RMK ST5SC2SC1 CVCTV CLD EMBD SLP129=
METAR CYTH 220100Z 01007KT 15SM -SHRA FEW010 BKN040 BKN070 OVC210
13/12 A2986 RMK SF2SC3AC2CI1 SLP122 DENSITY ALT 800FT=

TAF CYTH 220038Z 2201/2213 28010KT P6SM BKN050 TEMPO 2201/2203 P6SM
-SHRA BKN020 OVC040
FM220300 01008KT P6SM -RA OVC015 TEMPO 2203/2206 3SM -RA BR
OVC006
FM220600 02005KT P6SM OVC012 TEMPO 2206/2213 3SM -DZ BR OVC006
RMK NXT FCST BY 220700Z=
Your time UTC time
Weather data provided by Environment Canada and NAV CANADA